sensor_id;sensor_type;location;lat;lon;timestamp;P1;durP1;ratioP1;P2;durP2;ratioP2
10537;SDS011;5317;49.048;8.468;2023-02-12T00:01:03;17.80;;;14.90;;
10537;SDS011;5317;49.048;8.468;2023-02-12T00:03:34;19.37;;;14.37;;
10537;SDS011;5317;49.048;8.468;2023-02-12T00:06:01;20.37;;;15.23;;
10537;SDS011;5317;49.048;8.468;2023-02-12T00:08:28;16.67;;;13.03;;
10537;SDS011;5317;49.048;8.468;2023-02-12T00:10:56;18.07;;;12.87;;
10537;SDS011;5317;49.048;8.468;2023-02-12T00:13:23;14.63;;;12.23;;
10537;SDS011;5317;49.048;8.468;2023-02-12T00:15:51;16.07;;;13.10;;
10537;SDS011;5317;49.048;8.468;2023-02-12T00:18:17;18.30;;;12.83;;
10537;SDS011;5317;49.048;8.468;2023-02-12T00:20:44;18.23;;;13.60;;
10537;SDS011;5317;49.048;8.468;2023-02-12T00:23:11;15.43;;;12.00;;
10537;SDS011;5317;49.048;8.468;2023-02-12T00:25:39;14.63;;;12.07;;
10537;SDS011;5317;49.048;8.468;2023-02-12T00:28:08;16.73;;;12.47;;
10537;SDS011;5317;49.048;8.468;2023-02-12T00:30:35;14.20;;;12.47;;
10537;SDS011;5317;49.048;8.468;2023-02-12T00:33:02;16.83;;;12.47;;
10537;SDS011;5317;49.048;8.468;2023-02-12T00:35:29;15.77;;;12.83;;
10537;SDS011;5317;49.048;8.468;2023-02-12T00:37:55;14.73;;;12.80;;
10537;SDS011;5317;49.048;8.468;2023-02-12T00:40:23;16.67;;;12.83;;
10537;SDS011;5317;49.048;8.468;2023-02-12T00:42:50;17.57;;;12.60;;
10537;SDS011;5317;49.048;8.468;2023-02-12T00:45:18;17.60;;;12.43;;
10537;SDS011;5317;49.048;8.468;2023-02-12T00:47:45;14.77;;;12.40;;
10537;SDS011;5317;49.048;8.468;2023-02-12T00:50:13;16.00;;;13.00;;
10537;SDS011;5317;49.048;8.468;2023-02-12T00:52:40;13.47;;;12.00;;
10537;SDS011;5317;49.048;8.468;2023-02-12T00:55:07;14.40;;;11.63;;
10537;SDS011;5317;49.048;8.468;2023-02-12T00:57:34;17.27;;;12.90;;
10537;SDS011;5317;49.048;8.468;2023-02-12T01:00:01;15.33;;;11.70;;
10537;SDS011;5317;49.048;8.468;2023-02-12T01:02:29;15.60;;;11.77;;
10537;SDS011;5317;49.048;8.468;2023-02-12T01:04:56;15.40;;;12.23;;
10537;SDS011;5317;49.048;8.468;2023-02-12T01:07:23;12.87;;;10.97;;
10537;SDS011;5317;49.048;8.468;2023-02-12T01:09:50;16.70;;;11.63;;
10537;SDS011;5317;49.048;8.468;2023-02-12T01:12:17;13.63;;;12.23;;
10537;SDS011;5317;49.048;8.468;2023-02-12T01:14:44;17.07;;;12.73;;
10537;SDS011;5317;49.048;8.468;2023-02-12T01:17:10;14.17;;;11.83;;
10537;SDS011;5317;49.048;8.468;2023-02-12T01:19:50;13.77;;;12.27;;
10537;SDS011;5317;49.048;8.468;2023-02-12T01:22:21;15.27;;;12.73;;
10537;SDS011;5317;49.048;8.468;2023-02-12T01:24:48;16.23;;;13.40;;
10537;SDS011;5317;49.048;8.468;2023-02-12T01:27:15;15.03;;;13.07;;
10537;SDS011;5317;49.048;8.468;2023-02-12T01:29:41;19.17;;;14.60;;
10537;SDS011;5317;49.048;8.468;2023-02-12T01:32:09;17.53;;;14.63;;
10537;SDS011;5317;49.048;8.468;2023-02-12T01:34:36;20.63;;;15.93;;
10537;SDS011;5317;49.048;8.468;2023-02-12T01:37:05;18.80;;;15.60;;
10537;SDS011;5317;49.048;8.468;2023-02-12T01:39:32;20.27;;;16.37;;
10537;SDS011;5317;49.048;8.468;2023-02-12T01:41:59;21.27;;;16.20;;
10537;SDS011;5317;49.048;8.468;2023-02-12T01:44:29;19.30;;;16.07;;
10537;SDS011;5317;49.048;8.468;2023-02-12T01:46:57;18.53;;;16.07;;
10537;SDS011;5317;49.048;8.468;2023-02-12T01:49:27;20.10;;;15.43;;
10537;SDS011;5317;49.048;8.468;2023-02-12T01:51:58;18.50;;;15.57;;
10537;SDS011;5317;49.048;8.468;2023-02-12T01:54:31;17.23;;;14.60;;
10537;SDS011;5317;49.048;8.468;2023-02-12T01:57:00;16.67;;;14.37;;
10537;SDS011;5317;49.048;8.468;2023-02-12T01:59:28;19.40;;;15.30;;
10537;SDS011;5317;49.048;8.468;2023-02-12T02:01:56;19.80;;;14.67;;
10537;SDS011;5317;49.048;8.468;2023-02-12T02:04:24;19.13;;;15.17;;
10537;SDS011;5317;49.048;8.468;2023-02-12T02:06:55;20.27;;;16.20;;
10537;SDS011;5317;49.048;8.468;2023-02-12T02:09:23;18.83;;;15.30;;
10537;SDS011;5317;49.048;8.468;2023-02-12T02:11:53;18.53;;;15.93;;
10537;SDS011;5317;49.048;8.468;2023-02-12T02:14:37;20.20;;;16.33;;
10537;SDS011;5317;49.048;8.468;2023-02-12T02:17:08;19.97;;;15.97;;
10537;SDS011;5317;49.048;8.468;2023-02-12T02:22:50;20.13;;;15.67;;
10537;SDS011;5317;49.048;8.468;2023-02-12T02:31:57;18.67;;;14.77;;
10537;SDS011;5317;49.048;8.468;2023-02-12T02:34:32;20.97;;;16.60;;
10537;SDS011;5317;49.048;8.468;2023-02-12T02:37:07;19.97;;;15.47;;
10537;SDS011;5317;49.048;8.468;2023-02-12T02:39:40;19.57;;;16.50;;
10537;SDS011;5317;49.048;8.468;2023-02-12T02:42:14;20.10;;;15.63;;
10537;SDS011;5317;49.048;8.468;2023-02-12T02:44:46;19.67;;;16.00;;
10537;SDS011;5317;49.048;8.468;2023-02-12T02:47:19;18.97;;;15.93;;
10537;SDS011;5317;49.048;8.468;2023-02-12T02:49:50;19.50;;;15.53;;
10537;SDS011;5317;49.048;8.468;2023-02-12T02:52:21;19.53;;;16.37;;
10537;SDS011;5317;49.048;8.468;2023-02-12T02:54:55;19.17;;;15.83;;
10537;SDS011;5317;49.048;8.468;2023-02-12T02:57:27;19.27;;;15.63;;
10537;SDS011;5317;49.048;8.468;2023-02-12T03:00:00;18.03;;;15.00;;
10537;SDS011;5317;49.048;8.468;2023-02-12T03:02:35;17.20;;;14.20;;
10537;SDS011;5317;49.048;8.468;2023-02-12T03:05:05;16.57;;;14.40;;
10537;SDS011;5317;49.048;8.468;2023-02-12T03:07:36;17.47;;;14.10;;
10537;SDS011;5317;49.048;8.468;2023-02-12T03:10:09;18.30;;;14.77;;
10537;SDS011;5317;49.048;8.468;2023-02-12T03:12:40;18.73;;;14.17;;
10537;SDS011;5317;49.048;8.468;2023-02-12T03:15:14;18.37;;;14.63;;
10537;SDS011;5317;49.048;8.468;2023-02-12T03:17:48;17.73;;;14.47;;
10537;SDS011;5317;49.048;8.468;2023-02-12T03:20:16;19.83;;;15.70;;
10537;SDS011;5317;49.048;8.468;2023-02-12T03:22:45;18.53;;;14.43;;
10537;SDS011;5317;49.048;8.468;2023-02-12T03:25:17;16.27;;;14.37;;
10537;SDS011;5317;49.048;8.468;2023-02-12T03:27:49;17.63;;;14.70;;
10537;SDS011;5317;49.048;8.468;2023-02-12T03:30:20;18.00;;;15.27;;
10537;SDS011;5317;49.048;8.468;2023-02-12T03:32:50;17.87;;;15.17;;
10537;SDS011;5317;49.048;8.468;2023-02-12T03:35:27;21.57;;;16.23;;
10537;SDS011;5317;49.048;8.468;2023-02-12T03:38:00;18.70;;;15.03;;
10537;SDS011;5317;49.048;8.468;2023-02-12T03:40:33;20.40;;;16.60;;
10537;SDS011;5317;49.048;8.468;2023-02-12T03:43:07;20.43;;;16.23;;
10537;SDS011;5317;49.048;8.468;2023-02-12T03:45:42;21.37;;;16.80;;
10537;SDS011;5317;49.048;8.468;2023-02-12T03:48:18;20.17;;;16.50;;
10537;SDS011;5317;49.048;8.468;2023-02-12T03:50:50;18.97;;;15.43;;
10537;SDS011;5317;49.048;8.468;2023-02-12T03:53:19;21.77;;;16.30;;
10537;SDS011;5317;49.048;8.468;2023-02-12T03:55:47;19.93;;;16.60;;
10537;SDS011;5317;49.048;8.468;2023-02-12T03:58:18;21.47;;;16.47;;
10537;SDS011;5317;49.048;8.468;2023-02-12T04:00:48;19.57;;;15.73;;
10537;SDS011;5317;49.048;8.468;2023-02-12T04:03:17;20.03;;;16.30;;
10537;SDS011;5317;49.048;8.468;2023-02-12T04:05:44;18.87;;;15.67;;
10537;SDS011;5317;49.048;8.468;2023-02-12T04:08:11;20.93;;;15.83;;
10537;SDS011;5317;49.048;8.468;2023-02-12T04:10:41;19.80;;;16.27;;
10537;SDS011;5317;49.048;8.468;2023-02-12T04:13:20;20.17;;;15.70;;
10537;SDS011;5317;49.048;8.468;2023-02-12T04:15:56;19.53;;;15.47;;
10537;SDS011;5317;49.048;8.468;2023-02-12T04:18:35;17.80;;;15.30;;
10537;SDS011;5317;49.048;8.468;2023-02-12T04:21:08;17.37;;;15.27;;
10537;SDS011;5317;49.048;8.468;2023-02-12T04:23:46;16.33;;;14.33;;
10537;SDS011;5317;49.048;8.468;2023-02-12T04:26:22;16.57;;;14.03;;
10537;SDS011;5317;49.048;8.468;2023-02-12T04:28:57;17.23;;;14.37;;
10537;SDS011;5317;49.048;8.468;2023-02-12T04:31:30;21.57;;;15.67;;
10537;SDS011;5317;49.048;8.468;2023-02-12T04:34:06;19.73;;;15.27;;
10537;SDS011;5317;49.048;8.468;2023-02-12T04:36:40;19.83;;;15.60;;
10537;SDS011;5317;49.048;8.468;2023-02-12T04:39:14;18.13;;;15.17;;
10537;SDS011;5317;49.048;8.468;2023-02-12T04:41:45;21.07;;;15.87;;
10537;SDS011;5317;49.048;8.468;2023-02-12T04:44:13;19.87;;;17.20;;
10537;SDS011;5317;49.048;8.468;2023-02-12T04:46:41;20.80;;;16.57;;
10537;SDS011;5317;49.048;8.468;2023-02-12T04:49:10;19.23;;;16.20;;
10537;SDS011;5317;49.048;8.468;2023-02-12T04:51:41;19.27;;;16.57;;
10537;SDS011;5317;49.048;8.468;2023-02-12T04:54:08;22.80;;;15.90;;
10537;SDS011;5317;49.048;8.468;2023-02-12T04:56:35;22.23;;;16.67;;
10537;SDS011;5317;49.048;8.468;2023-02-12T04:59:02;20.20;;;17.23;;
10537;SDS011;5317;49.048;8.468;2023-02-12T05:01:30;22.43;;;16.53;;
10537;SDS011;5317;49.048;8.468;2023-02-12T05:03:58;19.87;;;15.50;;
10537;SDS011;5317;49.048;8.468;2023-02-12T05:06:26;19.40;;;16.30;;
10537;SDS011;5317;49.048;8.468;2023-02-12T05:08:54;17.23;;;14.93;;
10537;SDS011;5317;49.048;8.468;2023-02-12T05:11:21;19.63;;;15.77;;
10537;SDS011;5317;49.048;8.468;2023-02-12T05:13:48;20.67;;;15.10;;
10537;SDS011;5317;49.048;8.468;2023-02-12T05:16:16;19.93;;;16.87;;
10537;SDS011;5317;49.048;8.468;2023-02-12T05:18:44;21.30;;;16.90;;
10537;SDS011;5317;49.048;8.468;2023-02-12T05:21:11;20.13;;;16.90;;
10537;SDS011;5317;49.048;8.468;2023-02-12T05:23:39;22.60;;;16.77;;
10537;SDS011;5317;49.048;8.468;2023-02-12T05:26:09;20.30;;;16.03;;
10537;SDS011;5317;49.048;8.468;2023-02-12T05:28:37;20.87;;;16.60;;
10537;SDS011;5317;49.048;8.468;2023-02-12T05:31:05;20.63;;;16.53;;
10537;SDS011;5317;49.048;8.468;2023-02-12T05:33:33;20.90;;;16.73;;
10537;SDS011;5317;49.048;8.468;2023-02-12T05:36:04;21.07;;;17.63;;
10537;SDS011;5317;49.048;8.468;2023-02-12T05:38:32;19.70;;;15.90;;
10537;SDS011;5317;49.048;8.468;2023-02-12T05:41:04;21.97;;;16.50;;
10537;SDS011;5317;49.048;8.468;2023-02-12T05:43:32;20.77;;;17.07;;
10537;SDS011;5317;49.048;8.468;2023-02-12T05:46:00;20.30;;;17.20;;
10537;SDS011;5317;49.048;8.468;2023-02-12T05:48:28;21.50;;;16.63;;
10537;SDS011;5317;49.048;8.468;2023-02-12T05:51:00;21.97;;;16.97;;
10537;SDS011;5317;49.048;8.468;2023-02-12T05:53:27;23.37;;;17.70;;
10537;SDS011;5317;49.048;8.468;2023-02-12T05:56:03;22.40;;;18.03;;
10537;SDS011;5317;49.048;8.468;2023-02-12T05:58:46;21.83;;;16.20;;
10537;SDS011;5317;49.048;8.468;2023-02-12T06:01:17;19.70;;;16.53;;
10537;SDS011;5317;49.048;8.468;2023-02-12T06:03:45;17.27;;;15.40;;
10537;SDS011;5317;49.048;8.468;2023-02-12T06:06:12;21.17;;;16.80;;
10537;SDS011;5317;49.048;8.468;2023-02-12T06:08:39;19.80;;;16.80;;
10537;SDS011;5317;49.048;8.468;2023-02-12T06:11:07;20.63;;;16.37;;
10537;SDS011;5317;49.048;8.468;2023-02-12T06:13:38;19.10;;;15.73;;
10537;SDS011;5317;49.048;8.468;2023-02-12T06:16:05;19.50;;;16.27;;
10537;SDS011;5317;49.048;8.468;2023-02-12T06:18:33;18.67;;;15.30;;
10537;SDS011;5317;49.048;8.468;2023-02-12T06:21:01;20.70;;;15.97;;
10537;SDS011;5317;49.048;8.468;2023-02-12T06:23:30;20.47;;;16.67;;
10537;SDS011;5317;49.048;8.468;2023-02-12T06:25:57;24.07;;;17.47;;
10537;SDS011;5317;49.048;8.468;2023-02-12T06:28:26;20.17;;;16.27;;
10537;SDS011;5317;49.048;8.468;2023-02-12T06:30:52;19.63;;;16.70;;
10537;SDS011;5317;49.048;8.468;2023-02-12T06:33:19;21.17;;;16.60;;
10537;SDS011;5317;49.048;8.468;2023-02-12T06:35:46;19.47;;;16.03;;
10537;SDS011;5317;49.048;8.468;2023-02-12T06:38:13;19.63;;;17.53;;
10537;SDS011;5317;49.048;8.468;2023-02-12T06:40:40;21.17;;;17.20;;
10537;SDS011;5317;49.048;8.468;2023-02-12T06:43:07;25.43;;;18.13;;
10537;SDS011;5317;49.048;8.468;2023-02-12T06:45:36;25.33;;;18.03;;
10537;SDS011;5317;49.048;8.468;2023-02-12T06:48:03;22.10;;;17.70;;
10537;SDS011;5317;49.048;8.468;2023-02-12T06:50:30;20.33;;;17.63;;
10537;SDS011;5317;49.048;8.468;2023-02-12T06:52:58;21.87;;;17.30;;
10537;SDS011;5317;49.048;8.468;2023-02-12T06:55:24;22.93;;;18.17;;
10537;SDS011;5317;49.048;8.468;2023-02-12T06:57:52;26.27;;;19.00;;
10537;SDS011;5317;49.048;8.468;2023-02-12T07:00:20;23.53;;;18.10;;
10537;SDS011;5317;49.048;8.468;2023-02-12T07:02:52;22.87;;;17.77;;
10537;SDS011;5317;49.048;8.468;2023-02-12T07:05:19;23.67;;;18.50;;
10537;SDS011;5317;49.048;8.468;2023-02-12T07:07:47;23.30;;;18.90;;
10537;SDS011;5317;49.048;8.468;2023-02-12T07:10:13;23.73;;;18.33;;
10537;SDS011;5317;49.048;8.468;2023-02-12T07:12:40;24.87;;;19.07;;
10537;SDS011;5317;49.048;8.468;2023-02-12T07:15:08;23.07;;;17.93;;
10537;SDS011;5317;49.048;8.468;2023-02-12T07:17:35;23.13;;;19.33;;
10537;SDS011;5317;49.048;8.468;2023-02-12T07:20:04;24.40;;;18.23;;
10537;SDS011;5317;49.048;8.468;2023-02-12T07:22:34;24.43;;;18.87;;
10537;SDS011;5317;49.048;8.468;2023-02-12T07:25:01;23.97;;;20.03;;
10537;SDS011;5317;49.048;8.468;2023-02-12T07:27:28;23.30;;;18.70;;
10537;SDS011;5317;49.048;8.468;2023-02-12T07:29:55;24.47;;;18.57;;
10537;SDS011;5317;49.048;8.468;2023-02-12T07:32:22;22.70;;;18.17;;
10537;SDS011;5317;49.048;8.468;2023-02-12T07:34:48;22.83;;;18.77;;
10537;SDS011;5317;49.048;8.468;2023-02-12T07:37:29;23.40;;;18.73;;
10537;SDS011;5317;49.048;8.468;2023-02-12T07:39:56;23.00;;;18.87;;
10537;SDS011;5317;49.048;8.468;2023-02-12T07:42:23;25.33;;;19.37;;
10537;SDS011;5317;49.048;8.468;2023-02-12T07:44:50;24.07;;;19.40;;
10537;SDS011;5317;49.048;8.468;2023-02-12T07:47:16;24.37;;;19.33;;
10537;SDS011;5317;49.048;8.468;2023-02-12T07:49:43;26.80;;;21.20;;
10537;SDS011;5317;49.048;8.468;2023-02-12T07:52:10;26.67;;;20.70;;
10537;SDS011;5317;49.048;8.468;2023-02-12T07:54:39;25.03;;;20.73;;
10537;SDS011;5317;49.048;8.468;2023-02-12T07:57:05;28.87;;;22.57;;
10537;SDS011;5317;49.048;8.468;2023-02-12T07:59:32;29.63;;;23.37;;
10537;SDS011;5317;49.048;8.468;2023-02-12T08:01:59;29.57;;;22.70;;
10537;SDS011;5317;49.048;8.468;2023-02-12T08:04:26;27.23;;;21.13;;
10537;SDS011;5317;49.048;8.468;2023-02-12T08:06:53;27.93;;;22.17;;
10537;SDS011;5317;49.048;8.468;2023-02-12T08:09:21;30.23;;;21.57;;
10537;SDS011;5317;49.048;8.468;2023-02-12T08:11:51;26.53;;;21.20;;
10537;SDS011;5317;49.048;8.468;2023-02-12T08:14:19;28.90;;;22.40;;
10537;SDS011;5317;49.048;8.468;2023-02-12T08:16:47;27.03;;;20.80;;
10537;SDS011;5317;49.048;8.468;2023-02-12T08:19:14;31.67;;;24.13;;
10537;SDS011;5317;49.048;8.468;2023-02-12T08:21:41;27.73;;;21.30;;
10537;SDS011;5317;49.048;8.468;2023-02-12T08:24:09;29.47;;;23.33;;
10537;SDS011;5317;49.048;8.468;2023-02-12T08:26:37;28.30;;;22.00;;
10537;SDS011;5317;49.048;8.468;2023-02-12T08:29:06;27.47;;;22.00;;
10537;SDS011;5317;49.048;8.468;2023-02-12T08:31:36;29.83;;;21.83;;
10537;SDS011;5317;49.048;8.468;2023-02-12T08:34:04;28.37;;;22.43;;
10537;SDS011;5317;49.048;8.468;2023-02-12T08:36:34;27.77;;;22.70;;
10537;SDS011;5317;49.048;8.468;2023-02-12T08:39:03;30.20;;;21.87;;
10537;SDS011;5317;49.048;8.468;2023-02-12T08:41:31;28.30;;;23.07;;
10537;SDS011;5317;49.048;8.468;2023-02-12T08:43:58;29.37;;;22.07;;
10537;SDS011;5317;49.048;8.468;2023-02-12T08:46:28;26.07;;;21.83;;
10537;SDS011;5317;49.048;8.468;2023-02-12T08:48:57;28.03;;;22.97;;
10537;SDS011;5317;49.048;8.468;2023-02-12T08:51:25;26.33;;;21.73;;
10537;SDS011;5317;49.048;8.468;2023-02-12T08:53:55;31.17;;;23.77;;
10537;SDS011;5317;49.048;8.468;2023-02-12T08:56:24;31.43;;;22.43;;
10537;SDS011;5317;49.048;8.468;2023-02-12T08:58:54;32.57;;;23.93;;
10537;SDS011;5317;49.048;8.468;2023-02-12T09:01:23;28.20;;;22.60;;
10537;SDS011;5317;49.048;8.468;2023-02-12T09:03:53;31.17;;;23.40;;
10537;SDS011;5317;49.048;8.468;2023-02-12T09:06:20;30.00;;;23.60;;
10537;SDS011;5317;49.048;8.468;2023-02-12T09:08:49;28.67;;;22.70;;
10537;SDS011;5317;49.048;8.468;2023-02-12T09:11:21;26.70;;;21.20;;
10537;SDS011;5317;49.048;8.468;2023-02-12T09:13:54;27.70;;;22.67;;
10537;SDS011;5317;49.048;8.468;2023-02-12T09:16:23;27.27;;;22.60;;
10537;SDS011;5317;49.048;8.468;2023-02-12T09:18:50;28.67;;;22.27;;
10537;SDS011;5317;49.048;8.468;2023-02-12T09:21:18;30.60;;;23.20;;
10537;SDS011;5317;49.048;8.468;2023-02-12T09:23:46;30.57;;;23.17;;
10537;SDS011;5317;49.048;8.468;2023-02-12T09:26:14;28.00;;;23.33;;
10537;SDS011;5317;49.048;8.468;2023-02-12T09:28:44;32.00;;;25.03;;
10537;SDS011;5317;49.048;8.468;2023-02-12T09:31:15;29.27;;;22.97;;
10537;SDS011;5317;49.048;8.468;2023-02-12T09:33:47;29.87;;;23.10;;
10537;SDS011;5317;49.048;8.468;2023-02-12T09:36:14;26.60;;;22.10;;
10537;SDS011;5317;49.048;8.468;2023-02-12T09:38:43;29.57;;;22.73;;
10537;SDS011;5317;49.048;8.468;2023-02-12T09:41:18;28.43;;;22.57;;
10537;SDS011;5317;49.048;8.468;2023-02-12T09:44:08;31.00;;;22.87;;
10537;SDS011;5317;49.048;8.468;2023-02-12T09:46:42;28.50;;;21.60;;
10537;SDS011;5317;49.048;8.468;2023-02-12T09:49:14;29.27;;;22.30;;
10537;SDS011;5317;49.048;8.468;2023-02-12T09:51:47;26.63;;;20.37;;
10537;SDS011;5317;49.048;8.468;2023-02-12T09:54:20;26.83;;;20.33;;
10537;SDS011;5317;49.048;8.468;2023-02-12T09:56:52;26.87;;;20.83;;
10537;SDS011;5317;49.048;8.468;2023-02-12T09:59:24;27.57;;;21.00;;
10537;SDS011;5317;49.048;8.468;2023-02-12T10:01:56;25.60;;;20.53;;
10537;SDS011;5317;49.048;8.468;2023-02-12T10:04:25;24.60;;;20.30;;
10537;SDS011;5317;49.048;8.468;2023-02-12T10:06:55;25.43;;;20.57;;
10537;SDS011;5317;49.048;8.468;2023-02-12T10:09:33;26.43;;;20.53;;
10537;SDS011;5317;49.048;8.468;2023-02-12T10:12:12;26.03;;;19.73;;
10537;SDS011;5317;49.048;8.468;2023-02-12T10:14:49;22.40;;;18.17;;
10537;SDS011;5317;49.048;8.468;2023-02-12T10:17:32;21.83;;;17.90;;
10537;SDS011;5317;49.048;8.468;2023-02-12T10:20:29;22.87;;;17.90;;
10537;SDS011;5317;49.048;8.468;2023-02-12T10:23:09;20.47;;;16.87;;
10537;SDS011;5317;49.048;8.468;2023-02-12T10:25:54;20.27;;;16.77;;
10537;SDS011;5317;49.048;8.468;2023-02-12T10:28:24;20.70;;;16.40;;
10537;SDS011;5317;49.048;8.468;2023-02-12T10:30:54;23.27;;;16.47;;
10537;SDS011;5317;49.048;8.468;2023-02-12T10:33:25;19.03;;;16.13;;
10537;SDS011;5317;49.048;8.468;2023-02-12T10:35:55;22.97;;;17.13;;
10537;SDS011;5317;49.048;8.468;2023-02-12T10:38:29;22.43;;;17.60;;
10537;SDS011;5317;49.048;8.468;2023-02-12T10:41:00;20.07;;;17.10;;
10537;SDS011;5317;49.048;8.468;2023-02-12T10:43:27;17.77;;;15.50;;
10537;SDS011;5317;49.048;8.468;2023-02-12T10:45:54;17.53;;;14.47;;
10537;SDS011;5317;49.048;8.468;2023-02-12T10:48:22;18.40;;;15.23;;
10537;SDS011;5317;49.048;8.468;2023-02-12T10:51:03;20.90;;;16.00;;
10537;SDS011;5317;49.048;8.468;2023-02-12T10:53:40;21.77;;;16.80;;
10537;SDS011;5317;49.048;8.468;2023-02-12T10:56:12;19.00;;;15.57;;
10537;SDS011;5317;49.048;8.468;2023-02-12T10:58:49;20.43;;;15.93;;
10537;SDS011;5317;49.048;8.468;2023-02-12T11:01:19;16.97;;;14.20;;
10537;SDS011;5317;49.048;8.468;2023-02-12T11:03:49;15.63;;;12.87;;
10537;SDS011;5317;49.048;8.468;2023-02-12T11:06:17;19.27;;;15.17;;
10537;SDS011;5317;49.048;8.468;2023-02-12T11:08:46;19.67;;;14.97;;
10537;SDS011;5317;49.048;8.468;2023-02-12T11:11:15;18.53;;;16.03;;
10537;SDS011;5317;49.048;8.468;2023-02-12T11:13:46;20.73;;;16.47;;
10537;SDS011;5317;49.048;8.468;2023-02-12T11:16:27;20.20;;;16.23;;
10537;SDS011;5317;49.048;8.468;2023-02-12T11:18:59;18.93;;;16.40;;
10537;SDS011;5317;49.048;8.468;2023-02-12T11:21:28;18.13;;;15.27;;
10537;SDS011;5317;49.048;8.468;2023-02-12T11:23:56;16.93;;;14.67;;
10537;SDS011;5317;49.048;8.468;2023-02-12T11:26:25;14.50;;;12.50;;
10537;SDS011;5317;49.048;8.468;2023-02-12T11:28:54;17.17;;;13.73;;
10537;SDS011;5317;49.048;8.468;2023-02-12T11:31:23;15.23;;;13.10;;
10537;SDS011;5317;49.048;8.468;2023-02-12T11:34:09;15.63;;;12.97;;
10537;SDS011;5317;49.048;8.468;2023-02-12T11:36:41;13.80;;;11.13;;
10537;SDS011;5317;49.048;8.468;2023-02-12T11:39:15;13.00;;;10.73;;
10537;SDS011;5317;49.048;8.468;2023-02-12T11:41:49;12.97;;;10.40;;
10537;SDS011;5317;49.048;8.468;2023-02-12T11:44:19;11.10;;;9.77;;
10537;SDS011;5317;49.048;8.468;2023-02-12T11:46:50;13.30;;;11.30;;
10537;SDS011;5317;49.048;8.468;2023-02-12T11:49:21;12.97;;;10.83;;
10537;SDS011;5317;49.048;8.468;2023-02-12T11:51:50;14.87;;;10.80;;
10537;SDS011;5317;49.048;8.468;2023-02-12T11:54:18;12.43;;;10.23;;
10537;SDS011;5317;49.048;8.468;2023-02-12T11:56:52;14.77;;;11.27;;
10537;SDS011;5317;49.048;8.468;2023-02-12T11:59:24;15.03;;;12.43;;
10537;SDS011;5317;49.048;8.468;2023-02-12T12:01:57;16.33;;;12.70;;
10537;SDS011;5317;49.048;8.468;2023-02-12T12:04:29;13.90;;;11.63;;
10537;SDS011;5317;49.048;8.468;2023-02-12T12:07:02;19.53;;;14.17;;
10537;SDS011;5317;49.048;8.468;2023-02-12T12:09:38;14.20;;;11.70;;
10537;SDS011;5317;49.048;8.468;2023-02-12T12:12:12;16.00;;;12.90;;
10537;SDS011;5317;49.048;8.468;2023-02-12T12:14:45;18.77;;;14.87;;
10537;SDS011;5317;49.048;8.468;2023-02-12T12:17:34;20.60;;;15.40;;
10537;SDS011;5317;49.048;8.468;2023-02-12T12:20:24;17.27;;;13.87;;
10537;SDS011;5317;49.048;8.468;2023-02-12T12:22:56;14.77;;;12.13;;
10537;SDS011;5317;49.048;8.468;2023-02-12T12:25:28;13.50;;;11.90;;
10537;SDS011;5317;49.048;8.468;2023-02-12T12:28:04;12.27;;;10.93;;
10537;SDS011;5317;49.048;8.468;2023-02-12T12:30:42;14.30;;;11.43;;
10537;SDS011;5317;49.048;8.468;2023-02-12T12:33:18;12.03;;;10.17;;
10537;SDS011;5317;49.048;8.468;2023-02-12T12:35:55;12.80;;;9.93;;
10537;SDS011;5317;49.048;8.468;2023-02-12T12:38:37;10.17;;;9.17;;
10537;SDS011;5317;49.048;8.468;2023-02-12T12:41:14;9.67;;;8.53;;
10537;SDS011;5317;49.048;8.468;2023-02-12T12:43:52;9.03;;;7.90;;
10537;SDS011;5317;49.048;8.468;2023-02-12T12:46:31;11.27;;;8.00;;
10537;SDS011;5317;49.048;8.468;2023-02-12T12:49:10;7.23;;;6.50;;
10537;SDS011;5317;49.048;8.468;2023-02-12T12:51:59;6.53;;;5.87;;
10537;SDS011;5317;49.048;8.468;2023-02-12T12:54:54;6.53;;;5.83;;
10537;SDS011;5317;49.048;8.468;2023-02-12T13:00:26;6.97;;;5.80;;
10537;SDS011;5317;49.048;8.468;2023-02-12T13:03:12;6.33;;;5.60;;
10537;SDS011;5317;49.048;8.468;2023-02-12T13:05:58;6.77;;;5.57;;
10537;SDS011;5317;49.048;8.468;2023-02-12T13:08:50;5.93;;;5.27;;
10537;SDS011;5317;49.048;8.468;2023-02-12T13:11:52;7.00;;;5.80;;
10537;SDS011;5317;49.048;8.468;2023-02-12T13:14:36;7.30;;;6.23;;
10537;SDS011;5317;49.048;8.468;2023-02-12T13:17:12;7.57;;;6.20;;
10537;SDS011;5317;49.048;8.468;2023-02-12T13:19:46;6.30;;;5.23;;
10537;SDS011;5317;49.048;8.468;2023-02-12T13:22:22;8.17;;;6.43;;
10537;SDS011;5317;49.048;8.468;2023-02-12T13:24:56;7.43;;;6.13;;
10537;SDS011;5317;49.048;8.468;2023-02-12T13:27:31;7.53;;;6.40;;
10537;SDS011;5317;49.048;8.468;2023-02-12T13:30:04;7.00;;;6.30;;
10537;SDS011;5317;49.048;8.468;2023-02-12T13:32:42;7.50;;;6.70;;
10537;SDS011;5317;49.048;8.468;2023-02-12T13:35:14;6.87;;;6.17;;
10537;SDS011;5317;49.048;8.468;2023-02-12T13:37:44;7.63;;;6.83;;
10537;SDS011;5317;49.048;8.468;2023-02-12T13:40:14;6.97;;;6.27;;
10537;SDS011;5317;49.048;8.468;2023-02-12T13:42:44;8.10;;;6.70;;
10537;SDS011;5317;49.048;8.468;2023-02-12T13:45:29;8.40;;;7.50;;
10537;SDS011;5317;49.048;8.468;2023-02-12T13:48:15;7.80;;;7.03;;
10537;SDS011;5317;49.048;8.468;2023-02-12T13:50:55;7.33;;;6.63;;
10537;SDS011;5317;49.048;8.468;2023-02-12T13:53:27;8.53;;;7.73;;
10537;SDS011;5317;49.048;8.468;2023-02-12T13:56:04;7.57;;;6.97;;
10537;SDS011;5317;49.048;8.468;2023-02-12T13:58:47;7.80;;;7.00;;
10537;SDS011;5317;49.048;8.468;2023-02-12T14:01:35;8.70;;;7.90;;
10537;SDS011;5317;49.048;8.468;2023-02-12T14:04:27;8.77;;;7.90;;
10537;SDS011;5317;49.048;8.468;2023-02-12T14:07:00;7.97;;;7.27;;
10537;SDS011;5317;49.048;8.468;2023-02-12T14:09:34;8.23;;;7.53;;
10537;SDS011;5317;49.048;8.468;2023-02-12T14:12:05;7.90;;;7.20;;
10537;SDS011;5317;49.048;8.468;2023-02-12T14:14:35;8.90;;;8.10;;
10537;SDS011;5317;49.048;8.468;2023-02-12T14:20:24;8.10;;;7.30;;
10537;SDS011;5317;49.048;8.468;2023-02-12T14:22:55;8.10;;;7.37;;
10537;SDS011;5317;49.048;8.468;2023-02-12T14:25:41;8.77;;;7.97;;
10537;SDS011;5317;49.048;8.468;2023-02-12T14:28:17;8.63;;;7.83;;
10537;SDS011;5317;49.048;8.468;2023-02-12T14:33:50;8.37;;;7.60;;
10537;SDS011;5317;49.048;8.468;2023-02-12T14:36:28;7.90;;;7.20;;
10537;SDS011;5317;49.048;8.468;2023-02-12T14:39:07;8.43;;;7.63;;
10537;SDS011;5317;49.048;8.468;2023-02-12T14:41:53;8.40;;;7.67;;
10537;SDS011;5317;49.048;8.468;2023-02-12T14:47:11;8.47;;;7.67;;
10537;SDS011;5317;49.048;8.468;2023-02-12T14:50:10;7.67;;;7.00;;
10537;SDS011;5317;49.048;8.468;2023-02-12T14:52:45;9.33;;;8.47;;
10537;SDS011;5317;49.048;8.468;2023-02-12T14:55:18;9.07;;;8.37;;
10537;SDS011;5317;49.048;8.468;2023-02-12T14:57:49;8.97;;;8.17;;
10537;SDS011;5317;49.048;8.468;2023-02-12T15:00:22;9.30;;;8.50;;
10537;SDS011;5317;49.048;8.468;2023-02-12T15:02:52;9.50;;;8.70;;
10537;SDS011;5317;49.048;8.468;2023-02-12T15:05:25;9.33;;;8.50;;
10537;SDS011;5317;49.048;8.468;2023-02-12T15:07:56;9.00;;;8.20;;
10537;SDS011;5317;49.048;8.468;2023-02-12T15:10:26;9.17;;;8.37;;
10537;SDS011;5317;49.048;8.468;2023-02-12T15:13:00;9.73;;;8.83;;
10537;SDS011;5317;49.048;8.468;2023-02-12T15:15:34;8.67;;;7.97;;
10537;SDS011;5317;49.048;8.468;2023-02-12T15:18:06;8.60;;;7.80;;
10537;SDS011;5317;49.048;8.468;2023-02-12T15:20:42;9.67;;;8.83;;
10537;SDS011;5317;49.048;8.468;2023-02-12T15:23:31;8.57;;;7.77;;
10537;SDS011;5317;49.048;8.468;2023-02-12T15:26:02;9.10;;;8.20;;